sensor_id;sensor_type;location;lat;lon;timestamp;P1;durP1;ratioP1;P2;durP2;ratioP2
57848;SDS011;68645;44.762;21.516;2024-02-15T00:00:28;77.88;;;40.63;;
57848;SDS011;68645;44.762;21.516;2024-02-15T00:02:54;85.28;;;45.55;;
57848;SDS011;68645;44.762;21.516;2024-02-15T00:05:23;173.20;;;96.78;;
57848;SDS011;68645;44.762;21.516;2024-02-15T00:07:49;145.20;;;76.68;;
57848;SDS011;68645;44.762;21.516;2024-02-15T00:10:15;99.43;;;50.67;;
57848;SDS011;68645;44.762;21.516;2024-02-15T00:12:42;99.22;;;52.30;;
57848;SDS011;68645;44.762;21.516;2024-02-15T00:15:08;85.78;;;45.67;;
57848;SDS011;68645;44.762;21.516;2024-02-15T00:17:36;85.18;;;46.25;;
57848;SDS011;68645;44.762;21.516;2024-02-15T00:20:02;90.05;;;46.00;;
57848;SDS011;68645;44.762;21.516;2024-02-15T00:22:34;78.45;;;39.75;;
57848;SDS011;68645;44.762;21.516;2024-02-15T00:25:01;74.00;;;38.72;;
57848;SDS011;68645;44.762;21.516;2024-02-15T00:27:27;75.93;;;39.05;;
57848;SDS011;68645;44.762;21.516;2024-02-15T00:29:54;84.40;;;39.80;;
57848;SDS011;68645;44.762;21.516;2024-02-15T00:32:20;81.93;;;39.33;;
57848;SDS011;68645;44.762;21.516;2024-02-15T00:34:46;71.05;;;35.63;;
57848;SDS011;68645;44.762;21.516;2024-02-15T00:37:12;71.85;;;35.55;;
57848;SDS011;68645;44.762;21.516;2024-02-15T00:39:38;68.47;;;35.13;;
57848;SDS011;68645;44.762;21.516;2024-02-15T00:42:05;64.88;;;35.47;;
57848;SDS011;68645;44.762;21.516;2024-02-15T00:44:34;67.70;;;35.80;;
57848;SDS011;68645;44.762;21.516;2024-02-15T00:47:00;65.55;;;34.50;;
57848;SDS011;68645;44.762;21.516;2024-02-15T00:49:26;64.45;;;34.28;;
57848;SDS011;68645;44.762;21.516;2024-02-15T00:51:53;63.03;;;33.00;;
57848;SDS011;68645;44.762;21.516;2024-02-15T00:54:19;60.75;;;30.67;;
57848;SDS011;68645;44.762;21.516;2024-02-15T00:56:45;70.93;;;36.03;;
57848;SDS011;68645;44.762;21.516;2024-02-15T00:59:11;103.35;;;50.47;;
57848;SDS011;68645;44.762;21.516;2024-02-15T01:01:37;173.82;;;78.07;;
57848;SDS011;68645;44.762;21.516;2024-02-15T01:04:04;125.72;;;61.20;;
57848;SDS011;68645;44.762;21.516;2024-02-15T01:06:30;214.23;;;97.97;;
57848;SDS011;68645;44.762;21.516;2024-02-15T01:08:57;136.20;;;60.13;;
57848;SDS011;68645;44.762;21.516;2024-02-15T01:11:26;114.55;;;55.22;;
57848;SDS011;68645;44.762;21.516;2024-02-15T01:13:53;92.07;;;43.72;;
57848;SDS011;68645;44.762;21.516;2024-02-15T01:16:20;134.45;;;65.68;;
57848;SDS011;68645;44.762;21.516;2024-02-15T01:18:49;127.22;;;65.82;;
57848;SDS011;68645;44.762;21.516;2024-02-15T01:21:16;121.78;;;63.40;;
57848;SDS011;68645;44.762;21.516;2024-02-15T01:23:42;87.82;;;46.83;;
57848;SDS011;68645;44.762;21.516;2024-02-15T01:26:09;77.85;;;41.97;;
57848;SDS011;68645;44.762;21.516;2024-02-15T01:28:37;109.43;;;54.13;;
57848;SDS011;68645;44.762;21.516;2024-02-15T01:31:04;57.78;;;29.83;;
57848;SDS011;68645;44.762;21.516;2024-02-15T01:33:31;60.70;;;30.55;;
57848;SDS011;68645;44.762;21.516;2024-02-15T01:35:57;56.60;;;28.48;;
57848;SDS011;68645;44.762;21.516;2024-02-15T01:38:24;54.85;;;28.67;;
57848;SDS011;68645;44.762;21.516;2024-02-15T01:40:50;111.57;;;54.15;;
57848;SDS011;68645;44.762;21.516;2024-02-15T01:43:16;172.82;;;82.03;;
57848;SDS011;68645;44.762;21.516;2024-02-15T01:45:43;91.97;;;44.53;;
57848;SDS011;68645;44.762;21.516;2024-02-15T01:48:10;88.32;;;46.03;;
57848;SDS011;68645;44.762;21.516;2024-02-15T01:50:36;52.88;;;28.88;;
57848;SDS011;68645;44.762;21.516;2024-02-15T01:53:03;43.03;;;25.00;;
57848;SDS011;68645;44.762;21.516;2024-02-15T01:55:30;51.58;;;26.63;;
57848;SDS011;68645;44.762;21.516;2024-02-15T01:57:57;46.17;;;25.15;;
57848;SDS011;68645;44.762;21.516;2024-02-15T02:00:24;51.45;;;26.33;;
57848;SDS011;68645;44.762;21.516;2024-02-15T02:02:50;67.45;;;33.03;;
57848;SDS011;68645;44.762;21.516;2024-02-15T02:05:18;62.40;;;31.20;;
57848;SDS011;68645;44.762;21.516;2024-02-15T02:07:44;69.22;;;33.78;;
57848;SDS011;68645;44.762;21.516;2024-02-15T02:10:10;64.28;;;34.22;;
57848;SDS011;68645;44.762;21.516;2024-02-15T02:12:38;70.57;;;38.25;;
57848;SDS011;68645;44.762;21.516;2024-02-15T02:15:05;70.35;;;35.67;;
57848;SDS011;68645;44.762;21.516;2024-02-15T02:17:32;61.63;;;33.08;;
57848;SDS011;68645;44.762;21.516;2024-02-15T02:19:59;65.78;;;35.83;;
57848;SDS011;68645;44.762;21.516;2024-02-15T02:22:25;65.47;;;33.13;;
57848;SDS011;68645;44.762;21.516;2024-02-15T02:24:59;61.38;;;33.10;;
57848;SDS011;68645;44.762;21.516;2024-02-15T02:27:29;63.75;;;31.40;;
57848;SDS011;68645;44.762;21.516;2024-02-15T02:29:56;53.42;;;29.13;;
57848;SDS011;68645;44.762;21.516;2024-02-15T02:32:24;49.65;;;27.05;;
57848;SDS011;68645;44.762;21.516;2024-02-15T02:34:51;53.35;;;26.50;;
57848;SDS011;68645;44.762;21.516;2024-02-15T02:37:23;49.85;;;28.02;;
57848;SDS011;68645;44.762;21.516;2024-02-15T02:39:49;57.00;;;28.88;;
57848;SDS011;68645;44.762;21.516;2024-02-15T02:42:16;42.95;;;24.60;;
57848;SDS011;68645;44.762;21.516;2024-02-15T02:44:42;48.50;;;25.58;;
57848;SDS011;68645;44.762;21.516;2024-02-15T02:47:08;55.33;;;26.80;;
57848;SDS011;68645;44.762;21.516;2024-02-15T02:49:37;48.00;;;26.50;;
57848;SDS011;68645;44.762;21.516;2024-02-15T02:52:03;57.80;;;29.95;;
57848;SDS011;68645;44.762;21.516;2024-02-15T02:54:30;46.72;;;26.58;;
57848;SDS011;68645;44.762;21.516;2024-02-15T02:56:56;53.97;;;30.27;;
57848;SDS011;68645;44.762;21.516;2024-02-15T02:59:22;51.45;;;28.15;;
57848;SDS011;68645;44.762;21.516;2024-02-15T03:01:50;48.85;;;27.52;;
57848;SDS011;68645;44.762;21.516;2024-02-15T03:04:16;51.33;;;28.83;;
57848;SDS011;68645;44.762;21.516;2024-02-15T03:06:43;56.75;;;34.10;;
57848;SDS011;68645;44.762;21.516;2024-02-15T03:09:09;61.92;;;30.77;;
57848;SDS011;68645;44.762;21.516;2024-02-15T03:11:36;60.22;;;32.50;;
57848;SDS011;68645;44.762;21.516;2024-02-15T03:14:03;54.67;;;30.30;;
57848;SDS011;68645;44.762;21.516;2024-02-15T03:16:32;48.42;;;28.38;;
57848;SDS011;68645;44.762;21.516;2024-02-15T03:19:01;52.58;;;27.80;;
57848;SDS011;68645;44.762;21.516;2024-02-15T03:21:30;52.53;;;28.20;;
57848;SDS011;68645;44.762;21.516;2024-02-15T03:23:56;48.95;;;25.73;;
57848;SDS011;68645;44.762;21.516;2024-02-15T03:26:32;47.25;;;25.00;;
57848;SDS011;68645;44.762;21.516;2024-02-15T03:29:07;49.22;;;25.23;;
57848;SDS011;68645;44.762;21.516;2024-02-15T03:31:35;47.75;;;25.77;;
57848;SDS011;68645;44.762;21.516;2024-02-15T03:34:04;54.25;;;27.35;;
57848;SDS011;68645;44.762;21.516;2024-02-15T03:36:31;53.70;;;27.00;;
57848;SDS011;68645;44.762;21.516;2024-02-15T03:38:57;62.63;;;31.42;;
57848;SDS011;68645;44.762;21.516;2024-02-15T03:41:23;52.08;;;25.63;;
57848;SDS011;68645;44.762;21.516;2024-02-15T03:43:56;48.35;;;25.75;;
57848;SDS011;68645;44.762;21.516;2024-02-15T03:46:24;53.40;;;28.40;;
57848;SDS011;68645;44.762;21.516;2024-02-15T03:48:50;51.80;;;25.98;;
57848;SDS011;68645;44.762;21.516;2024-02-15T03:51:17;53.42;;;26.58;;
57848;SDS011;68645;44.762;21.516;2024-02-15T03:53:48;50.17;;;26.55;;
57848;SDS011;68645;44.762;21.516;2024-02-15T03:56:14;47.10;;;25.30;;
57848;SDS011;68645;44.762;21.516;2024-02-15T03:58:41;62.67;;;29.83;;
57848;SDS011;68645;44.762;21.516;2024-02-15T04:01:07;60.15;;;30.13;;
57848;SDS011;68645;44.762;21.516;2024-02-15T04:03:35;55.38;;;29.52;;
57848;SDS011;68645;44.762;21.516;2024-02-15T04:06:01;71.28;;;33.42;;
57848;SDS011;68645;44.762;21.516;2024-02-15T04:08:27;50.45;;;26.77;;
57848;SDS011;68645;44.762;21.516;2024-02-15T04:10:53;49.88;;;25.50;;
57848;SDS011;68645;44.762;21.516;2024-02-15T04:13:20;53.55;;;27.42;;
57848;SDS011;68645;44.762;21.516;2024-02-15T04:15:46;48.25;;;23.35;;
57848;SDS011;68645;44.762;21.516;2024-02-15T04:18:14;51.75;;;26.17;;
57848;SDS011;68645;44.762;21.516;2024-02-15T04:20:42;58.42;;;31.73;;
57848;SDS011;68645;44.762;21.516;2024-02-15T04:23:11;50.95;;;26.52;;
57848;SDS011;68645;44.762;21.516;2024-02-15T04:25:37;49.80;;;26.23;;
57848;SDS011;68645;44.762;21.516;2024-02-15T04:28:04;44.92;;;23.75;;
57848;SDS011;68645;44.762;21.516;2024-02-15T04:30:30;53.08;;;28.08;;
57848;SDS011;68645;44.762;21.516;2024-02-15T04:32:57;59.22;;;28.65;;
57848;SDS011;68645;44.762;21.516;2024-02-15T04:35:23;103.40;;;41.05;;
57848;SDS011;68645;44.762;21.516;2024-02-15T04:37:52;91.35;;;36.85;;
57848;SDS011;68645;44.762;21.516;2024-02-15T04:40:19;41.65;;;22.40;;
57848;SDS011;68645;44.762;21.516;2024-02-15T04:42:45;67.00;;;29.58;;
57848;SDS011;68645;44.762;21.516;2024-02-15T04:45:12;118.20;;;44.20;;
57848;SDS011;68645;44.762;21.516;2024-02-15T04:47:40;71.90;;;31.50;;
57848;SDS011;68645;44.762;21.516;2024-02-15T04:50:06;62.55;;;27.52;;
57848;SDS011;68645;44.762;21.516;2024-02-15T04:52:34;56.92;;;25.95;;
57848;SDS011;68645;44.762;21.516;2024-02-15T04:55:00;69.43;;;34.75;;
57848;SDS011;68645;44.762;21.516;2024-02-15T04:57:29;76.00;;;35.55;;
57848;SDS011;68645;44.762;21.516;2024-02-15T04:59:56;54.00;;;28.55;;
57848;SDS011;68645;44.762;21.516;2024-02-15T05:02:24;49.47;;;25.33;;
57848;SDS011;68645;44.762;21.516;2024-02-15T05:04:51;58.92;;;30.20;;
57848;SDS011;68645;44.762;21.516;2024-02-15T05:07:21;50.67;;;25.97;;
57848;SDS011;68645;44.762;21.516;2024-02-15T05:09:48;52.70;;;26.20;;
57848;SDS011;68645;44.762;21.516;2024-02-15T05:12:21;57.97;;;27.73;;
57848;SDS011;68645;44.762;21.516;2024-02-15T05:14:50;58.17;;;29.50;;
57848;SDS011;68645;44.762;21.516;2024-02-15T05:17:18;60.03;;;29.17;;
57848;SDS011;68645;44.762;21.516;2024-02-15T05:19:44;51.55;;;27.38;;
57848;SDS011;68645;44.762;21.516;2024-02-15T05:22:11;59.25;;;28.13;;
57848;SDS011;68645;44.762;21.516;2024-02-15T05:24:38;59.22;;;29.52;;
57848;SDS011;68645;44.762;21.516;2024-02-15T05:27:04;53.83;;;27.80;;
57848;SDS011;68645;44.762;21.516;2024-02-15T05:29:31;60.13;;;29.85;;
57848;SDS011;68645;44.762;21.516;2024-02-15T05:32:01;64.60;;;32.45;;
57848;SDS011;68645;44.762;21.516;2024-02-15T05:34:27;54.47;;;27.23;;
57848;SDS011;68645;44.762;21.516;2024-02-15T05:36:56;59.05;;;31.10;;
57848;SDS011;68645;44.762;21.516;2024-02-15T05:39:23;80.13;;;39.65;;
57848;SDS011;68645;44.762;21.516;2024-02-15T05:41:50;98.63;;;46.17;;
57848;SDS011;68645;44.762;21.516;2024-02-15T05:44:16;95.28;;;45.95;;
57848;SDS011;68645;44.762;21.516;2024-02-15T05:46:45;122.95;;;52.65;;
57848;SDS011;68645;44.762;21.516;2024-02-15T05:49:12;175.02;;;65.50;;
57848;SDS011;68645;44.762;21.516;2024-02-15T05:51:42;111.03;;;48.85;;
57848;SDS011;68645;44.762;21.516;2024-02-15T05:54:08;127.88;;;51.83;;
57848;SDS011;68645;44.762;21.516;2024-02-15T05:56:34;109.88;;;47.75;;
57848;SDS011;68645;44.762;21.516;2024-02-15T05:59:00;98.35;;;41.75;;
57848;SDS011;68645;44.762;21.516;2024-02-15T06:01:35;59.22;;;29.25;;
57848;SDS011;68645;44.762;21.516;2024-02-15T06:04:01;67.28;;;31.35;;
57848;SDS011;68645;44.762;21.516;2024-02-15T06:06:29;88.63;;;42.85;;
57848;SDS011;68645;44.762;21.516;2024-02-15T06:08:56;79.18;;;35.92;;
57848;SDS011;68645;44.762;21.516;2024-02-15T06:11:25;96.00;;;43.22;;
57848;SDS011;68645;44.762;21.516;2024-02-15T06:13:51;92.53;;;44.60;;
57848;SDS011;68645;44.762;21.516;2024-02-15T06:16:17;100.82;;;50.47;;
57848;SDS011;68645;44.762;21.516;2024-02-15T06:18:43;87.32;;;44.40;;
57848;SDS011;68645;44.762;21.516;2024-02-15T06:21:09;88.53;;;42.97;;
57848;SDS011;68645;44.762;21.516;2024-02-15T06:23:36;85.70;;;44.05;;
57848;SDS011;68645;44.762;21.516;2024-02-15T06:26:02;101.88;;;54.13;;
57848;SDS011;68645;44.762;21.516;2024-02-15T06:28:29;82.25;;;47.38;;
57848;SDS011;68645;44.762;21.516;2024-02-15T06:31:13;82.63;;;45.38;;
57848;SDS011;68645;44.762;21.516;2024-02-15T06:33:58;87.43;;;45.38;;
57848;SDS011;68645;44.762;21.516;2024-02-15T06:36:46;89.55;;;47.90;;
57848;SDS011;68645;44.762;21.516;2024-02-15T06:39:31;78.00;;;42.55;;
57848;SDS011;68645;44.762;21.516;2024-02-15T06:42:06;79.18;;;43.25;;
57848;SDS011;68645;44.762;21.516;2024-02-15T06:44:32;76.85;;;41.45;;
57848;SDS011;68645;44.762;21.516;2024-02-15T06:46:58;85.20;;;46.38;;
57848;SDS011;68645;44.762;21.516;2024-02-15T06:49:24;76.47;;;42.40;;
57848;SDS011;68645;44.762;21.516;2024-02-15T06:51:51;73.28;;;41.22;;
57848;SDS011;68645;44.762;21.516;2024-02-15T06:54:17;71.60;;;43.38;;
57848;SDS011;68645;44.762;21.516;2024-02-15T06:56:44;84.40;;;51.22;;
57848;SDS011;68645;44.762;21.516;2024-02-15T06:59:11;202.10;;;109.65;;
57848;SDS011;68645;44.762;21.516;2024-02-15T07:01:42;149.95;;;96.63;;
57848;SDS011;68645;44.762;21.516;2024-02-15T07:04:08;90.28;;;58.33;;
57848;SDS011;68645;44.762;21.516;2024-02-15T07:06:37;76.70;;;46.72;;
57848;SDS011;68645;44.762;21.516;2024-02-15T07:09:04;82.43;;;50.78;;
57848;SDS011;68645;44.762;21.516;2024-02-15T07:11:34;83.28;;;52.22;;
57848;SDS011;68645;44.762;21.516;2024-02-15T07:14:00;76.43;;;48.72;;
57848;SDS011;68645;44.762;21.516;2024-02-15T07:16:27;72.93;;;45.38;;
57848;SDS011;68645;44.762;21.516;2024-02-15T07:18:54;74.47;;;45.00;;
57848;SDS011;68645;44.762;21.516;2024-02-15T07:21:20;76.50;;;46.95;;
57848;SDS011;68645;44.762;21.516;2024-02-15T07:23:52;81.43;;;53.28;;
57848;SDS011;68645;44.762;21.516;2024-02-15T07:26:19;66.50;;;38.20;;
57848;SDS011;68645;44.762;21.516;2024-02-15T07:28:48;111.97;;;86.72;;
57848;SDS011;68645;44.762;21.516;2024-02-15T07:31:15;99.15;;;76.47;;
57848;SDS011;68645;44.762;21.516;2024-02-15T07:33:41;49.60;;;32.40;;
57848;SDS011;68645;44.762;21.516;2024-02-15T07:36:08;44.28;;;32.25;;
57848;SDS011;68645;44.762;21.516;2024-02-15T07:38:34;69.22;;;47.42;;
57848;SDS011;68645;44.762;21.516;2024-02-15T07:41:00;55.30;;;39.03;;
57848;SDS011;68645;44.762;21.516;2024-02-15T07:43:27;36.90;;;23.98;;
57848;SDS011;68645;44.762;21.516;2024-02-15T07:45:53;33.30;;;23.00;;
57848;SDS011;68645;44.762;21.516;2024-02-15T07:48:19;43.25;;;28.48;;
57848;SDS011;68645;44.762;21.516;2024-02-15T07:50:45;45.88;;;28.48;;
57848;SDS011;68645;44.762;21.516;2024-02-15T07:53:11;35.85;;;23.77;;
57848;SDS011;68645;44.762;21.516;2024-02-15T07:55:38;39.70;;;27.85;;
57848;SDS011;68645;44.762;21.516;2024-02-15T07:58:06;47.63;;;35.72;;
57848;SDS011;68645;44.762;21.516;2024-02-15T08:00:32;53.22;;;33.85;;
57848;SDS011;68645;44.762;21.516;2024-02-15T08:02:58;48.13;;;32.97;;
57848;SDS011;68645;44.762;21.516;2024-02-15T08:05:25;63.78;;;51.67;;
57848;SDS011;68645;44.762;21.516;2024-02-15T08:07:51;34.78;;;26.73;;
57848;SDS011;68645;44.762;21.516;2024-02-15T08:10:22;38.83;;;28.00;;
57848;SDS011;68645;44.762;21.516;2024-02-15T08:12:48;34.90;;;26.85;;
57848;SDS011;68645;44.762;21.516;2024-02-15T08:15:17;42.03;;;31.58;;
57848;SDS011;68645;44.762;21.516;2024-02-15T08:17:44;38.38;;;25.45;;
57848;SDS011;68645;44.762;21.516;2024-02-15T08:20:16;38.15;;;30.10;;
57848;SDS011;68645;44.762;21.516;2024-02-15T08:22:46;40.50;;;29.23;;
57848;SDS011;68645;44.762;21.516;2024-02-15T08:25:13;33.30;;;27.75;;
57848;SDS011;68645;44.762;21.516;2024-02-15T08:27:48;56.40;;;48.03;;
57848;SDS011;68645;44.762;21.516;2024-02-15T08:30:15;55.72;;;46.67;;
57848;SDS011;68645;44.762;21.516;2024-02-15T08:32:41;39.20;;;32.50;;
57848;SDS011;68645;44.762;21.516;2024-02-15T08:35:08;41.60;;;33.22;;
57848;SDS011;68645;44.762;21.516;2024-02-15T08:37:35;40.45;;;28.67;;
57848;SDS011;68645;44.762;21.516;2024-02-15T08:40:03;35.60;;;26.60;;
57848;SDS011;68645;44.762;21.516;2024-02-15T08:42:30;43.28;;;34.88;;
57848;SDS011;68645;44.762;21.516;2024-02-15T08:44:57;44.83;;;38.72;;
57848;SDS011;68645;44.762;21.516;2024-02-15T08:47:24;34.88;;;25.83;;
57848;SDS011;68645;44.762;21.516;2024-02-15T08:49:50;26.85;;;21.63;;
57848;SDS011;68645;44.762;21.516;2024-02-15T08:52:16;29.17;;;22.10;;
57848;SDS011;68645;44.762;21.516;2024-02-15T08:54:43;25.42;;;21.33;;
57848;SDS011;68645;44.762;21.516;2024-02-15T08:57:10;27.65;;;22.92;;
57848;SDS011;68645;44.762;21.516;2024-02-15T08:59:36;30.13;;;23.55;;
57848;SDS011;68645;44.762;21.516;2024-02-15T09:02:02;45.63;;;40.78;;
57848;SDS011;68645;44.762;21.516;2024-02-15T09:04:30;46.30;;;38.20;;
57848;SDS011;68645;44.762;21.516;2024-02-15T09:06:56;39.70;;;35.08;;
57848;SDS011;68645;44.762;21.516;2024-02-15T09:09:23;30.35;;;23.95;;
57848;SDS011;68645;44.762;21.516;2024-02-15T09:11:49;27.80;;;22.30;;
57848;SDS011;68645;44.762;21.516;2024-02-15T09:14:15;28.40;;;20.60;;
57848;SDS011;68645;44.762;21.516;2024-02-15T09:16:41;27.40;;;20.42;;
57848;SDS011;68645;44.762;21.516;2024-02-15T09:19:07;37.95;;;29.38;;
57848;SDS011;68645;44.762;21.516;2024-02-15T09:21:33;48.58;;;36.25;;
57848;SDS011;68645;44.762;21.516;2024-02-15T09:24:02;58.67;;;42.35;;
57848;SDS011;68645;44.762;21.516;2024-02-15T09:26:28;57.28;;;40.85;;
57848;SDS011;68645;44.762;21.516;2024-02-15T09:28:54;51.67;;;40.40;;
57848;SDS011;68645;44.762;21.516;2024-02-15T09:31:20;47.25;;;38.38;;
57848;SDS011;68645;44.762;21.516;2024-02-15T09:33:46;50.90;;;40.35;;
57848;SDS011;68645;44.762;21.516;2024-02-15T09:36:12;47.85;;;38.45;;
57848;SDS011;68645;44.762;21.516;2024-02-15T09:38:39;51.95;;;40.53;;
57848;SDS011;68645;44.762;21.516;2024-02-15T09:41:05;50.85;;;37.58;;
57848;SDS011;68645;44.762;21.516;2024-02-15T09:43:32;40.08;;;34.15;;
57848;SDS011;68645;44.762;21.516;2024-02-15T09:45:59;46.75;;;35.65;;
57848;SDS011;68645;44.762;21.516;2024-02-15T09:48:29;33.23;;;25.80;;
57848;SDS011;68645;44.762;21.516;2024-02-15T09:50:55;73.03;;;52.70;;
57848;SDS011;68645;44.762;21.516;2024-02-15T09:53:22;47.00;;;36.85;;
57848;SDS011;68645;44.762;21.516;2024-02-15T09:55:53;33.70;;;28.95;;
57848;SDS011;68645;44.762;21.516;2024-02-15T09:58:20;36.28;;;28.85;;
57848;SDS011;68645;44.762;21.516;2024-02-15T10:00:48;37.78;;;30.45;;
57848;SDS011;68645;44.762;21.516;2024-02-15T10:03:16;33.72;;;25.80;;
57848;SDS011;68645;44.762;21.516;2024-02-15T10:05:44;27.52;;;21.40;;
57848;SDS011;68645;44.762;21.516;2024-02-15T10:08:10;25.83;;;21.33;;
57848;SDS011;68645;44.762;21.516;2024-02-15T10:10:36;20.35;;;18.02;;
57848;SDS011;68645;44.762;21.516;2024-02-15T10:13:02;23.63;;;17.77;;
57848;SDS011;68645;44.762;21.516;2024-02-15T10:15:33;25.65;;;19.98;;
57848;SDS011;68645;44.762;21.516;2024-02-15T10:18:00;24.77;;;19.52;;
57848;SDS011;68645;44.762;21.516;2024-02-15T10:20:27;19.73;;;15.25;;
57848;SDS011;68645;44.762;21.516;2024-02-15T10:25:26;18.48;;;13.90;;
57848;SDS011;68645;44.762;21.516;2024-02-15T10:28:01;20.55;;;14.30;;
57848;SDS011;68645;44.762;21.516;2024-02-15T10:30:27;22.60;;;16.58;;
57848;SDS011;68645;44.762;21.516;2024-02-15T10:32:54;19.55;;;13.68;;
57848;SDS011;68645;44.762;21.516;2024-02-15T10:35:22;14.50;;;11.82;;
57848;SDS011;68645;44.762;21.516;2024-02-15T10:37:49;13.77;;;11.65;;
57848;SDS011;68645;44.762;21.516;2024-02-15T10:40:18;13.75;;;9.45;;
57848;SDS011;68645;44.762;21.516;2024-02-15T10:42:48;27.10;;;20.05;;
57848;SDS011;68645;44.762;21.516;2024-02-15T10:45:17;19.33;;;11.80;;
57848;SDS011;68645;44.762;21.516;2024-02-15T10:47:45;13.98;;;10.23;;
57848;SDS011;68645;44.762;21.516;2024-02-15T10:50:12;13.10;;;10.75;;
57848;SDS011;68645;44.762;21.516;2024-02-15T10:52:56;19.25;;;16.13;;
57848;SDS011;68645;44.762;21.516;2024-02-15T10:57:59;16.95;;;12.20;;
57848;SDS011;68645;44.762;21.516;2024-02-15T11:00:30;16.55;;;12.18;;
57848;SDS011;68645;44.762;21.516;2024-02-15T11:03:01;17.83;;;12.48;;
57848;SDS011;68645;44.762;21.516;2024-02-15T11:05:31;18.92;;;14.43;;
57848;SDS011;68645;44.762;21.516;2024-02-15T11:07:59;15.93;;;11.57;;
57848;SDS011;68645;44.762;21.516;2024-02-15T11:10:26;14.68;;;11.40;;
57848;SDS011;68645;44.762;21.516;2024-02-15T11:12:53;19.15;;;13.40;;
57848;SDS011;68645;44.762;21.516;2024-02-15T11:18:01;25.73;;;17.90;;
57848;SDS011;68645;44.762;21.516;2024-02-15T11:22:58;19.73;;;12.00;;
57848;SDS011;68645;44.762;21.516;2024-02-15T11:25:34;16.73;;;12.63;;
57848;SDS011;68645;44.762;21.516;2024-02-15T11:29:02;16.20;;;11.73;;
57848;SDS011;68645;44.762;21.516;2024-02-15T11:30:59;28.83;;;21.45;;
57848;SDS011;68645;44.762;21.516;2024-02-15T11:33:31;23.80;;;16.63;;
57848;SDS011;68645;44.762;21.516;2024-02-15T11:38:32;27.75;;;16.63;;
57848;SDS011;68645;44.762;21.516;2024-02-15T11:41:00;15.38;;;11.35;;
57848;SDS011;68645;44.762;21.516;2024-02-15T11:46:17;12.77;;;9.18;;
57848;SDS011;68645;44.762;21.516;2024-02-15T11:48:53;13.80;;;9.88;;
57848;SDS011;68645;44.762;21.516;2024-02-15T11:51:32;10.60;;;8.82;;
57848;SDS011;68645;44.762;21.516;2024-02-15T11:54:11;18.67;;;13.93;;
57848;SDS011;68645;44.762;21.516;2024-02-15T11:59:13;16.65;;;11.60;;
57848;SDS011;68645;44.762;21.516;2024-02-15T12:01:55;25.40;;;15.43;;
57848;SDS011;68645;44.762;21.516;2024-02-15T12:04:40;18.58;;;14.00;;
57848;SDS011;68645;44.762;21.516;2024-02-15T12:07:25;17.02;;;12.65;;
57848;SDS011;68645;44.762;21.516;2024-02-15T12:10:16;16.08;;;11.30;;
57848;SDS011;68645;44.762;21.516;2024-02-15T12:13:01;16.40;;;12.90;;
57848;SDS011;68645;44.762;21.516;2024-02-15T12:16:01;15.23;;;11.05;;
57848;SDS011;68645;44.762;21.516;2024-02-15T12:18:46;17.08;;;12.43;;
57848;SDS011;68645;44.762;21.516;2024-02-15T12:21:18;19.33;;;13.00;;
57848;SDS011;68645;44.762;21.516;2024-02-15T12:23:48;17.92;;;10.52;;
57848;SDS011;68645;44.762;21.516;2024-02-15T12:26:20;15.93;;;10.57;;
57848;SDS011;68645;44.762;21.516;2024-02-15T12:28:54;12.38;;;9.00;;
57848;SDS011;68645;44.762;21.516;2024-02-15T12:31:23;10.93;;;8.73;;
57848;SDS011;68645;44.762;21.516;2024-02-15T12:34:02;15.27;;;10.80;;
57848;SDS011;68645;44.762;21.516;2024-02-15T12:36:32;15.43;;;10.15;;
57848;SDS011;68645;44.762;21.516;2024-02-15T12:39:05;15.70;;;10.32;;
57848;SDS011;68645;44.762;21.516;2024-02-15T12:41:47;15.38;;;10.98;;
57848;SDS011;68645;44.762;21.516;2024-02-15T12:44:18;18.60;;;11.73;;
57848;SDS011;68645;44.762;21.516;2024-02-15T12:46:56;18.00;;;12.27;;
57848;SDS011;68645;44.762;21.516;2024-02-15T12:51:52;16.35;;;10.25;;
57848;SDS011;68645;44.762;21.516;2024-02-15T12:54:22;14.13;;;9.65;;
57848;SDS011;68645;44.762;21.516;2024-02-15T12:56:49;19.83;;;12.30;;
57848;SDS011;68645;44.762;21.516;2024-02-15T12:59:18;16.15;;;11.27;;
57848;SDS011;68645;44.762;21.516;2024-02-15T13:01:45;18.27;;;8.82;;
57848;SDS011;68645;44.762;21.516;2024-02-15T13:04:23;30.45;;;19.00;;
57848;SDS011;68645;44.762;21.516;2024-02-15T13:06:51;22.40;;;14.35;;
57848;SDS011;68645;44.762;21.516;2024-02-15T13:09:18;16.58;;;11.20;;
57848;SDS011;68645;44.762;21.516;2024-02-15T13:11:48;19.63;;;12.38;;
57848;SDS011;68645;44.762;21.516;2024-02-15T13:14:17;16.45;;;11.15;;
57848;SDS011;68645;44.762;21.516;2024-02-15T13:16:45;21.00;;;12.45;;
57848;SDS011;68645;44.762;21.516;2024-02-15T13:19:13;14.75;;;9.75;;
57848;SDS011;68645;44.762;21.516;2024-02-15T13:21:41;37.10;;;16.25;;
57848;SDS011;68645;44.762;21.516;2024-02-15T13:24:08;55.28;;;22.20;;
57848;SDS011;68645;44.762;21.516;2024-02-15T13:26:39;32.53;;;16.95;;
57848;SDS011;68645;44.762;21.516;2024-02-15T13:29:05;26.60;;;15.85;;
57848;SDS011;68645;44.762;21.516;2024-02-15T13:31:34;31.67;;;16.88;;
57848;SDS011;68645;44.762;21.516;2024-02-15T13:34:11;20.17;;;10.30;;
57848;SDS011;68645;44.762;21.516;2024-02-15T13:36:43;8.88;;;6.57;;
57848;SDS011;68645;44.762;21.516;2024-02-15T13:39:15;17.50;;;12.18;;
57848;SDS011;68645;44.762;21.516;2024-02-15T13:41:49;22.58;;;13.65;;
57848;SDS011;68645;44.762;21.516;2024-02-15T13:44:26;21.55;;;13.13;;
57848;SDS011;68645;44.762;21.516;2024-02-15T13:46:56;15.63;;;9.98;;
57848;SDS011;68645;44.762;21.516;2024-02-15T13:49:23;12.20;;;8.25;;
57848;SDS011;68645;44.762;21.516;2024-02-15T13:51:50;10.70;;;7.45;;
57848;SDS011;68645;44.762;21.516;2024-02-15T13:54:17;14.85;;;8.93;;
57848;SDS011;68645;44.762;21.516;2024-02-15T13:56:46;23.65;;;12.88;;
57848;SDS011;68645;44.762;21.516;2024-02-15T13:59:21;12.23;;;8.05;;
57848;SDS011;68645;44.762;21.516;2024-02-15T14:01:50;17.65;;;9.65;;
57848;SDS011;68645;44.762;21.516;2024-02-15T14:04:19;18.63;;;11.32;;
57848;SDS011;68645;44.762;21.516;2024-02-15T14:06:46;15.82;;;11.02;;
57848;SDS011;68645;44.762;21.516;2024-02-15T14:09:13;14.68;;;8.63;;
57848;SDS011;68645;44.762;21.516;2024-02-15T14:11:47;20.50;;;12.27;;
57848;SDS011;68645;44.762;21.516;2024-02-15T14:14:15;14.63;;;10.75;;
57848;SDS011;68645;44.762;21.516;2024-02-15T14:16:47;16.58;;;11.15;;
57848;SDS011;68645;44.762;21.516;2024-02-15T14:19:15;15.95;;;10.55;;
57848;SDS011;68645;44.762;21.516;2024-02-15T14:21:42;19.17;;;11.90;;
57848;SDS011;68645;44.762;21.516;2024-02-15T14:24:10;12.48;;;8.27;;
57848;SDS011;68645;44.762;21.516;2024-02-15T14:26:38;15.70;;;9.43;;
57848;SDS011;68645;44.762;21.516;2024-02-15T14:29:08;15.60;;;10.10;;
57848;SDS011;68645;44.762;21.516;2024-02-15T14:31:34;11.73;;;8.07;;
57848;SDS011;68645;44.762;21.516;2024-02-15T14:34:22;12.88;;;8.90;;
57848;SDS011;68645;44.762;21.516;2024-02-15T14:36:52;13.95;;;9.65;;